Time;durP1;ratioP1;P1;durP2;ratioP2;P2;SDS_P1;SDS_P2;PMS_P1;PMS_P2;Temp;Humidity;BMP_temperature;BMP_pressure;BME280_temperature;BME280_humidity;BME280_pressure;Samples;Min_cycle;Max_cycle;Signal;HPM_P1;HPM_P2
2023/09/28 00:03:02;;;;;;;10.63;7.43;;;;;;;18.61;78.60;101496.78;7395288;19;20070;-64
2023/09/28 00:05:32;;;;;;;11.25;7.53;;;;;;;18.61;78.35;101488.75;7394838;19;20469;-64
2023/09/28 00:08:01;;;;;;;11.20;8.20;;;;;;;18.61;78.56;101453.03;7393326;19;20590;-63
2023/09/28 00:10:30;;;;;;;13.07;8.60;;;;;;;18.61;77.94;101432.41;7393700;19;20023;-63
2023/09/28 00:12:58;;;;;;;12.10;8.25;;;;;;;18.64;77.59;101436.63;7395458;19;20022;-63
2023/09/28 00:15:27;;;;;;;11.45;8.20;;;;;;;18.63;77.96;101464.47;7393519;19;20078;-63
2023/09/28 00:17:55;;;;;;;13.75;8.10;;;;;;;18.57;77.79;101463.19;7394292;19;20050;-63
2023/09/28 00:20:22;;;;;;;11.85;8.23;;;;;;;18.60;77.72;101452.19;7394666;19;20025;-63
2023/09/28 00:22:52;;;;;;;10.63;7.47;;;;;;;18.65;77.93;101454.41;7395036;19;20015;-63
2023/09/28 00:25:22;;;;;;;12.38;8.02;;;;;;;18.60;77.95;101451.34;7394970;19;20047;-63
2023/09/28 00:27:52;;;;;;;12.05;7.35;;;;;;;18.53;78.38;101467.19;7395178;19;20018;-63
2023/09/28 00:30:22;;;;;;;12.02;7.55;;;;;;;18.50;78.15;101465.63;7393499;19;20098;-64
2023/09/28 00:32:54;;;;;;;9.73;7.00;;;;;;;18.48;78.09;101470.31;7394750;19;20014;-64
2023/09/28 00:35:23;;;;;;;11.60;7.68;;;;;;;18.48;78.14;101474.81;7392787;19;20015;-64
2023/09/28 00:37:50;;;;;;;11.43;7.85;;;;;;;18.47;78.19;101479.34;7393279;19;20033;-64
2023/09/28 00:40:19;;;;;;;12.38;6.75;;;;;;;18.46;78.15;101474.13;7394067;19;20035;-63
2023/09/28 00:42:49;;;;;;;12.05;7.70;;;;;;;18.45;78.39;101485.84;7393423;19;20023;-64
2023/09/28 00:45:24;;;;;;;11.63;6.85;;;;;;;18.43;78.18;101487.81;7394357;19;20022;-64
2023/09/28 00:47:55;;;;;;;11.32;7.85;;;;;;;18.41;78.32;101489.81;7393761;19;20054;-63
2023/09/28 00:50:23;;;;;;;11.05;7.38;;;;;;;18.38;78.74;101476.69;7391380;19;20017;-63
2023/09/28 00:52:54;;;;;;;10.35;6.45;;;;;;;18.37;78.71;101459.75;7393758;19;20525;-63
2023/09/28 00:55:23;;;;;;;10.85;6.97;;;;;;;18.40;78.18;101456.78;7392114;19;20353;-64
2023/09/28 00:57:51;;;;;;;10.57;7.07;;;;;;;18.40;77.99;101461.31;7391182;19;20516;-61
2023/09/28 01:00:21;;;;;;;13.90;7.72;;;;;;;18.42;78.05;101462.00;7393731;19;20064;-60
2023/09/28 01:02:51;;;;;;;9.30;6.70;;;;;;;18.49;77.24;101460.41;7393940;19;20018;-57
2023/09/28 01:05:20;;;;;;;9.80;6.50;;;;;;;18.46;77.74;101463.38;7393493;19;20022;-61
2023/09/28 01:07:48;;;;;;;10.38;6.18;;;;;;;18.46;77.74;101474.13;7392879;19;20022;-60
2023/09/28 01:10:20;;;;;;;9.20;5.97;;;;;;;18.44;77.66;101487.69;7391224;19;20027;-61
2023/09/28 01:12:48;;;;;;;11.80;6.70;;;;;;;18.46;77.44;101508.97;7392963;19;20011;-61
2023/09/28 01:15:19;;;;;;;11.75;7.70;;;;;;;18.54;77.02;101517.16;7392838;19;20011;-60
2023/09/28 01:17:47;;;;;;;12.00;7.47;;;;;;;18.55;76.54;101502.75;7391370;19;20026;-60
2023/09/28 01:20:18;;;;;;;11.15;6.88;;;;;;;18.61;76.46;101507.53;7392484;19;20015;-59
2023/09/28 01:22:49;;;;;;;12.45;8.15;;;;;;;18.65;76.17;101508.91;7390784;19;20023;-60
2023/09/28 01:25:18;;;;;;;9.75;7.05;;;;;;;18.65;76.09;101508.06;7393058;19;20853;-61
2023/09/28 01:27:47;;;;;;;9.77;6.75;;;;;;;18.62;76.25;101500.31;7390822;19;20023;-62
2023/09/28 01:30:15;;;;;;;11.25;7.85;;;;;;;18.65;75.89;101500.88;7391842;19;20014;-62
2023/09/28 01:32:44;;;;;;;10.02;7.00;;;;;;;18.65;75.77;101497.34;7392657;19;20018;-60
2023/09/28 01:35:11;;;;;;;11.45;7.35;;;;;;;18.66;75.67;101490.97;7393101;19;20405;-62
2023/09/28 01:37:54;;;;;;;10.80;7.28;;;;;;;18.74;75.64;101483.94;7391983;19;20026;-62
2023/09/28 01:40:21;;;;;;;11.18;6.90;;;;;;;18.63;75.97;101484.09;7393187;19;20081;-62
2023/09/28 01:42:49;;;;;;;11.13;7.53;;;;;;;18.63;75.79;101484.09;7393138;19;20026;-62
2023/09/28 01:45:17;;;;;;;9.93;6.63;;;;;;;18.64;76.00;101474.19;7392583;19;20011;-62
2023/09/28 01:47:44;;;;;;;10.45;7.30;;;;;;;18.60;75.95;101470.13;7391474;19;20370;-62
2023/09/28 01:50:12;;;;;;;12.05;6.85;;;;;;;18.57;76.22;101465.03;7390357;19;20022;-63
2023/09/28 01:52:39;;;;;;;8.75;6.05;;;;;;;18.59;76.03;101468.44;7391960;19;20018;-61
2023/09/28 01:55:07;;;;;;;8.10;6.00;;;;;;;18.62;75.62;101469.00;7390836;19;20014;-62
2023/09/28 01:57:35;;;;;;;9.07;6.25;;;;;;;18.61;75.57;101464.59;7391476;19;20090;-62
2023/09/28 02:00:14;;;;;;;10.55;5.97;;;;;;;18.63;74.99;101459.94;7391377;19;20019;-62
2023/09/28 02:02:43;;;;;;;9.90;6.25;;;;;;;18.63;75.60;101451.91;7392011;19;20023;-60
2023/09/28 02:05:11;;;;;;;11.25;6.28;;;;;;;18.57;75.54;101444.44;7391965;19;20021;-62
2023/09/28 02:07:39;;;;;;;9.30;6.10;;;;;;;18.55;75.76;101433.00;7392346;19;20419;-62
2023/09/28 02:10:09;;;;;;;8.93;5.07;;;;;;;18.55;76.03;101443.75;7390522;19;20018;-63
2023/09/28 02:12:43;;;;;;;9.05;6.20;;;;;;;18.59;75.48;101439.78;7391623;19;20029;-60
2023/09/28 02:15:14;;;;;;;8.45;5.55;;;;;;;18.54;75.85;101449.25;7391428;19;20011;-62
2023/09/28 02:17:46;;;;;;;7.45;5.43;;;;;;;18.57;75.54;101457.00;7391078;19;20120;-61
2023/09/28 02:20:15;;;;;;;9.60;5.50;;;;;;;18.59;75.10;101445.13;7389679;19;20035;-61
2023/09/28 02:22:44;;;;;;;7.80;5.47;;;;;;;18.64;74.70;101424.06;7392026;19;20043;-61
2023/09/28 02:25:19;;;;;;;7.85;5.40;;;;;;;18.67;74.35;101421.09;7391111;19;20022;-59
2023/09/28 02:27:47;;;;;;;10.18;5.40;;;;;;;18.72;73.51;101417.97;7391538;19;20014;-61
2023/09/28 02:30:19;;;;;;;8.77;5.15;;;;;;;18.75;73.23;101417.69;7390093;19;20022;-60
2023/09/28 02:32:48;;;;;;;7.72;4.85;;;;;;;18.74;73.32;101421.38;7393096;19;20039;-63
2023/09/28 02:35:18;;;;;;;7.00;4.57;;;;;;;18.69;73.34;101418.25;7392005;19;20019;-60
2023/09/28 02:37:48;;;;;;;10.00;5.03;;;;;;;18.70;72.97;101428.88;7391912;19;20021;-60
2023/09/28 02:40:18;;;;;;;7.38;4.82;;;;;;;18.72;72.89;101426.88;7396162;19;20018;-60
2023/09/28 02:42:48;;;;;;;8.60;4.95;;;;;;;18.74;73.17;101435.63;7393741;19;20021;-62
2023/09/28 02:45:17;;;;;;;8.38;4.70;;;;;;;18.74;72.61;101432.09;7393379;19;20017;-58
2023/09/28 02:47:47;;;;;;;8.57;5.07;;;;;;;18.77;72.62;101436.31;7397666;19;20090;-61
2023/09/28 02:50:19;;;;;;;7.85;4.82;;;;;;;18.75;72.72;101433.78;7395446;19;20018;-61
2023/09/28 02:52:47;;;;;;;8.82;5.05;;;;;;;18.68;72.38;101428.13;7389444;19;20011;-61
2023/09/28 02:55:17;;;;;;;8.13;5.18;;;;;;;18.67;72.68;101426.44;7390801;19;20048;-62
2023/09/28 02:57:47;;;;;;;7.97;5.63;;;;;;;18.72;72.66;101428.72;7388408;19;20023;-60
2023/09/28 03:02:53;;;;;;;8.57;5.32;;;;;;;18.73;72.78;101438.44;7389995;19;20031;-61
2023/09/28 03:05:20;;;;;;;9.20;5.07;;;;;;;18.70;72.62;101436.94;7390285;19;20507;-61
2023/09/28 03:07:49;;;;;;;8.50;5.20;;;;;;;18.70;72.57;101438.72;7397139;19;20119;-60
2023/09/28 03:10:17;;;;;;;9.40;5.30;;;;;;;18.72;72.59;101434.06;7396513;19;20483;-60
2023/09/28 03:12:46;;;;;;;6.82;5.00;;;;;;;18.64;72.76;101442.84;7397423;19;20019;-59
2023/09/28 03:15:16;;;;;;;9.10;5.45;;;;;;;18.65;73.00;101444.53;7397447;19;20048;-60
2023/09/28 03:17:46;;;;;;;8.93;5.22;;;;;;;18.65;72.58;101444.53;7396194;19;20018;-59
2023/09/28 03:20:18;;;;;;;6.80;4.95;;;;;;;18.60;72.77;101436.09;7396431;19;20022;-59
2023/09/28 03:22:49;;;;;;;7.43;5.20;;;;;;;18.65;72.78;101436.47;7397019;19;20015;-59
2023/09/28 03:25:20;;;;;;;8.95;5.13;;;;;;;18.67;72.43;101433.66;7396779;19;20094;-59
2023/09/28 03:27:50;;;;;;;10.02;5.40;;;;;;;18.70;72.11;101436.94;7395875;19;20021;-59
2023/09/28 03:30:19;;;;;;;10.50;5.53;;;;;;;18.61;72.89;101426.19;7394741;19;20035;-59
2023/09/28 03:32:47;;;;;;;8.65;5.07;;;;;;;18.63;72.72;101437.63;7396192;19;20027;-59
2023/09/28 03:35:16;;;;;;;7.13;4.85;;;;;;;18.69;72.44;101440.53;7396255;19;20531;-58
2023/09/28 03:37:45;;;;;;;8.02;5.32;;;;;;;18.71;72.17;101443.97;7395277;19;20556;-59
2023/09/28 03:40:14;;;;;;;8.48;4.78;;;;;;;18.67;72.30;101453.28;7394999;19;20198;-58
2023/09/28 03:42:43;;;;;;;8.68;5.15;;;;;;;18.66;72.07;101456.97;7395916;19;20014;-60
2023/09/28 03:45:14;;;;;;;7.85;5.40;;;;;;;18.67;72.08;101463.19;7395952;19;20018;-60
2023/09/28 03:47:44;;;;;;;7.47;4.93;;;;;;;18.66;71.76;101462.34;7395837;19;20087;-59
2023/09/28 03:50:12;;;;;;;6.63;5.03;;;;;;;18.70;72.14;101450.34;7395526;19;20030;-59
2023/09/28 03:52:42;;;;;;;9.07;5.07;;;;;;;18.72;71.74;101453.69;7395306;19;20018;-58
2023/09/28 03:55:11;;;;;;;9.55;5.13;;;;;;;18.70;71.43;101455.72;7394554;19;20015;-58
2023/09/28 03:57:42;;;;;;;9.95;5.00;;;;;;;18.72;71.41;101444.81;7395286;19;20022;-59
2023/09/28 04:00:14;;;;;;;8.75;4.82;;;;;;;18.75;71.67;101452.56;7394862;19;20356;-58
2023/09/28 04:02:50;;;;;;;9.02;5.10;;;;;;;18.75;71.52;101445.34;7394651;19;20011;-58
2023/09/28 04:05:23;;;;;;;7.13;4.82;;;;;;;18.74;71.62;101448.22;7391779;19;20024;-58
2023/09/28 04:07:52;;;;;;;6.85;4.57;;;;;;;18.71;71.77;101446.66;7391675;19;20037;-58
2023/09/28 04:10:21;;;;;;;6.82;4.65;;;;;;;18.71;71.44;101453.88;7395314;19;20115;-58
2023/09/28 04:12:54;;;;;;;9.90;5.05;;;;;;;18.74;71.21;101458.94;7393911;19;20094;-59
2023/09/28 04:15:24;;;;;;;8.95;5.30;;;;;;;18.71;71.28;101462.75;7394892;19;20018;-59
2023/09/28 04:17:52;;;;;;;8.55;4.57;;;;;;;18.73;71.02;101466.16;7392945;19;20026;-59
2023/09/28 04:20:20;;;;;;;7.13;4.80;;;;;;;18.71;70.94;101454.69;7395425;19;20019;-58
2023/09/28 04:22:48;;;;;;;7.30;4.70;;;;;;;18.74;70.99;101461.63;7393863;19;20019;-58
2023/09/28 04:25:19;;;;;;;7.70;4.90;;;;;;;18.72;71.18;101468.97;7395006;19;20037;-58
2023/09/28 04:27:49;;;;;;;8.63;4.90;;;;;;;18.73;70.88;101468.84;7394079;19;20022;-59
2023/09/28 04:30:17;;;;;;;7.22;4.57;;;;;;;18.73;70.48;101455.41;7393772;19;20014;-59
2023/09/28 04:32:50;;;;;;;10.73;4.88;;;;;;;18.74;70.40;101459.78;7394507;19;20382;-57
2023/09/28 04:35:18;;;;;;;7.85;4.88;;;;;;;18.68;70.91;101459.50;7393768;19;20014;-56
2023/09/28 04:37:47;;;;;;;9.80;4.72;;;;;;;18.67;70.75;101472.06;7393990;19;20022;-56
2023/09/28 04:40:15;;;;;;;8.02;4.68;;;;;;;18.68;70.89;101464.84;7393542;19;20082;-58
2023/09/28 04:42:43;;;;;;;7.57;4.70;;;;;;;18.68;70.98;101479.13;7392619;19;20014;-57
2023/09/28 04:45:10;;;;;;;9.32;4.80;;;;;;;18.70;70.70;101477.19;7394179;19;20407;-60
2023/09/28 04:47:38;;;;;;;8.70;4.40;;;;;;;18.71;70.54;101473.50;7393932;19;20043;-59
2023/09/28 04:50:06;;;;;;;8.68;4.47;;;;;;;18.68;70.53;101472.91;7393213;19;20011;-60
2023/09/28 04:52:34;;;;;;;8.23;4.47;;;;;;;18.67;70.51;101477.44;7391989;19;20026;-59
2023/09/28 04:55:02;;;;;;;8.15;5.03;;;;;;;18.67;70.93;101479.28;7394474;19;20022;-59
2023/09/28 04:57:33;;;;;;;8.15;5.43;;;;;;;18.67;70.65;101482.78;7393173;19;20027;-59
2023/09/28 05:00:01;;;;;;;10.02;5.18;;;;;;;18.68;70.47;101491.69;7392799;19;20023;-59
2023/09/28 05:02:29;;;;;;;7.43;4.80;;;;;;;18.68;70.63;101484.47;7393161;19;20018;-59
2023/09/28 05:04:57;;;;;;;9.40;4.90;;;;;;;18.68;70.56;101494.38;7393812;19;20026;-59
2023/09/28 05:07:24;;;;;;;6.43;4.15;;;;;;;18.65;70.83;101502.72;7392310;19;20026;-60
2023/09/28 05:09:52;;;;;;;7.25;4.88;;;;;;;18.65;70.91;101502.72;7391007;19;20015;-60
2023/09/28 05:12:19;;;;;;;7.78;4.40;;;;;;;18.64;70.65;101507.22;7390775;19;20039;-59
2023/09/28 05:14:47;;;;;;;6.82;4.28;;;;;;;18.61;70.77;101498.63;7394953;19;20046;-58
2023/09/28 05:17:15;;;;;;;8.57;4.93;;;;;;;18.63;70.67;101510.91;7393996;19;20029;-58
2023/09/28 05:19:43;;;;;;;7.68;5.30;;;;;;;18.61;70.58;101515.56;7391423;19;20021;-58
2023/09/28 05:22:11;;;;;;;9.25;5.03;;;;;;;18.55;70.89;101513.50;7394740;19;20035;-57
2023/09/28 05:24:39;;;;;;;9.40;5.30;;;;;;;18.54;71.08;101519.81;7393545;19;20471;-58
2023/09/28 05:27:06;;;;;;;7.20;4.78;;;;;;;18.54;70.69;101521.66;7392049;19;20364;-59
2023/09/28 05:29:34;;;;;;;8.40;5.30;;;;;;;18.56;70.65;101523.22;7389320;19;20623;-59
2023/09/28 05:32:04;;;;;;;10.40;5.10;;;;;;;18.56;70.93;101527.75;7391517;19;20031;-60
2023/09/28 05:34:31;;;;;;;8.77;4.70;;;;;;;18.53;71.14;101534.25;7392945;19;20519;-59
2023/09/28 05:36:59;;;;;;;8.88;4.80;;;;;;;18.52;70.86;101535.25;7393440;19;20026;-58
2023/09/28 05:39:27;;;;;;;9.43;5.05;;;;;;;18.50;70.86;101537.22;7391035;19;20082;-60
2023/09/28 05:41:56;;;;;;;9.10;5.07;;;;;;;18.48;70.98;101534.69;7392804;19;20015;-60
2023/09/28 05:44:24;;;;;;;9.48;5.20;;;;;;;18.45;71.07;101540.34;7392307;19;20086;-61
2023/09/28 05:46:52;;;;;;;8.32;4.68;;;;;;;18.42;71.36;101531.72;7391868;19;20023;-60
2023/09/28 05:49:19;;;;;;;8.05;5.03;;;;;;;18.47;70.94;101532.16;7390495;19;20021;-61
2023/09/28 05:51:47;;;;;;;10.52;5.18;;;;;;;18.52;70.85;101543.28;7390986;19;20368;-59
2023/09/28 05:54:15;;;;;;;7.65;4.78;;;;;;;18.53;70.75;101539.59;7390124;19;20022;-61
2023/09/28 05:56:44;;;;;;;10.15;5.20;;;;;;;18.54;70.89;101541.28;7390631;19;20042;-60
2023/09/28 05:59:11;;;;;;;9.25;4.50;;;;;;;18.56;70.57;101555.41;7390031;19;20015;-59
2023/09/28 06:01:39;;;;;;;11.93;5.18;;;;;;;18.59;70.57;101562.34;7391570;19;20018;-60
2023/09/28 06:04:07;;;;;;;9.45;5.30;;;;;;;18.55;70.81;101569.81;7391485;19;20059;-61
2023/09/28 06:06:34;;;;;;;8.85;5.28;;;;;;;18.53;70.91;101563.75;7391558;19;20014;-60
2023/09/28 06:09:02;;;;;;;10.07;5.07;;;;;;;18.56;70.88;101570.66;7390373;19;20089;-59
2023/09/28 06:11:30;;;;;;;9.70;4.88;;;;;;;18.53;70.63;101561.06;7391512;19;20022;-59
2023/09/28 06:13:57;;;;;;;10.15;4.70;;;;;;;18.54;70.86;101565.44;7390982;19;20030;-61
2023/09/28 06:16:38;;;;;;;9.07;4.95;;;;;;;18.54;70.70;101570.78;7392922;19;20010;-59
2023/09/28 06:19:06;;;;;;;7.60;4.93;;;;;;;18.56;70.73;101578.72;7390040;19;20018;-59
2023/09/28 06:21:34;;;;;;;6.53;4.60;;;;;;;18.58;70.73;101577.56;7391611;19;20026;-58
2023/09/28 06:24:02;;;;;;;9.27;5.15;;;;;;;18.60;70.79;101574.75;7392056;19;20375;-61
2023/09/28 06:26:30;;;;;;;8.65;5.13;;;;;;;18.55;70.93;101577.03;7390715;19;20039;-60
2023/09/28 06:29:01;;;;;;;9.43;5.20;;;;;;;18.54;71.19;101578.00;7389232;19;20015;-60
2023/09/28 06:31:28;;;;;;;10.88;5.38;;;;;;;18.58;70.82;101577.56;7390629;19;20022;-61
2023/09/28 06:33:56;;;;;;;8.60;4.82;;;;;;;18.58;71.09;101588.28;7391579;19;20033;-61
2023/09/28 06:36:27;;;;;;;10.10;5.45;;;;;;;18.58;70.81;101584.78;7390905;19;20023;-61
2023/09/28 06:39:11;;;;;;;12.27;5.40;;;;;;;18.55;71.15;101585.94;7389093;19;20018;-61
2023/09/28 06:41:41;;;;;;;9.90;5.50;;;;;;;18.59;71.30;101586.47;7397619;19;20023;-62
2023/09/28 06:44:09;;;;;;;8.40;5.30;;;;;;;18.64;71.11;101589.56;7398385;19;20504;-62
2023/09/28 06:46:37;;;;;;;9.85;5.40;;;;;;;18.67;70.92;101576.72;7398086;19;20029;-61
2023/09/28 06:49:06;;;;;;;9.77;5.43;;;;;;;18.70;70.96;101589.88;7395285;19;20055;-61
2023/09/28 06:51:34;;;;;;;10.63;5.68;;;;;;;18.68;71.32;101590.97;7395699;19;20015;-60
2023/09/28 06:54:02;;;;;;;10.70;5.63;;;;;;;18.73;71.08;101602.13;7398159;19;20347;-60
2023/09/28 06:56:30;;;;;;;10.98;5.47;;;;;;;18.77;71.15;101598.16;7397148;19;20015;-62
2023/09/28 06:58:58;;;;;;;9.65;5.43;;;;;;;18.76;71.24;101612.59;7395961;19;20015;-62
2023/09/28 07:01:26;;;;;;;12.48;5.93;;;;;;;18.77;71.26;101616.94;7396336;19;20022;-61
2023/09/28 07:03:53;;;;;;;9.20;5.60;;;;;;;18.82;71.28;101627.28;7397532;19;20015;-61
2023/09/28 07:06:21;;;;;;;12.02;6.00;;;;;;;18.86;71.02;101620.63;7397692;19;20038;-61
2023/09/28 07:08:49;;;;;;;12.27;6.18;;;;;;;18.87;71.26;101625.81;7395856;19;20423;-61
2023/09/28 07:11:19;;;;;;;9.95;5.88;;;;;;;18.89;71.02;101631.06;7395742;19;20015;-59
2023/09/28 07:13:47;;;;;;;10.93;6.00;;;;;;;18.94;70.90;101626.94;7397314;19;20019;-60
2023/09/28 07:16:14;;;;;;;8.90;5.80;;;;;;;18.98;70.81;101635.56;7397238;19;20063;-60
2023/09/28 07:18:42;;;;;;;10.00;5.65;;;;;;;18.99;71.48;101637.25;7395045;19;20487;-60
2023/09/28 07:21:10;;;;;;;12.05;5.50;;;;;;;19.05;71.08;101642.03;7396535;19;20528;-60
2023/09/28 07:23:39;;;;;;;9.73;5.75;;;;;;;19.09;71.06;101643.44;7397041;19;20018;-60
2023/09/28 07:26:16;;;;;;;11.00;5.72;;;;;;;19.17;70.85;101635.47;7396794;19;20018;-60
2023/09/28 07:28:44;;;;;;;12.93;6.13;;;;;;;19.16;71.04;101641.00;7392657;19;20389;-59
2023/09/28 07:31:13;;;;;;;10.35;6.30;;;;;;;19.20;71.00;101642.41;7396485;19;20022;-59
2023/09/28 07:33:41;;;;;;;11.23;6.05;;;;;;;19.25;71.13;101650.84;7396725;19;20022;-59
2023/09/28 07:36:09;;;;;;;11.30;6.07;;;;;;;19.27;70.94;101643.50;7396597;19;20504;-59
2023/09/28 07:38:37;;;;;;;11.30;6.18;;;;;;;19.35;71.25;101648.16;7394401;19;20546;-60
2023/09/28 07:41:05;;;;;;;10.60;6.38;;;;;;;19.37;71.18;101655.03;7396802;19;20043;-61
2023/09/28 07:43:32;;;;;;;9.40;6.10;;;;;;;19.40;71.40;101653.91;7395976;19;20019;-61
2023/09/28 07:46:00;;;;;;;12.52;6.40;;;;;;;19.43;71.14;101664.38;7394918;19;20010;-61
2023/09/28 07:48:28;;;;;;;10.93;6.20;;;;;;;19.43;71.48;101656.31;7394391;19;20101;-60
2023/09/28 07:50:56;;;;;;;13.18;6.38;;;;;;;19.47;71.96;101668.44;7395585;19;20018;-61
2023/09/28 07:53:24;;;;;;;11.30;6.40;;;;;;;19.51;71.43;101669.00;7392829;19;20037;-61
2023/09/28 07:55:52;;;;;;;11.63;6.50;;;;;;;19.58;71.38;101670.09;7395629;19;20472;-62
2023/09/28 07:58:19;;;;;;;9.80;5.30;;;;;;;19.62;71.89;101664.28;7394768;19;20035;-59
2023/09/28 08:00:53;;;;;;;9.82;5.80;;;;;;;19.66;71.79;101662.16;7396028;19;20019;-59
2023/09/28 08:03:21;;;;;;;9.70;5.70;;;;;;;19.72;71.48;101680.34;7395040;19;20024;-61
2023/09/28 08:05:49;;;;;;;12.27;5.65;;;;;;;19.78;71.66;101686.97;7394029;19;20078;-62
2023/09/28 08:08:18;;;;;;;11.13;5.43;;;;;;;19.80;71.12;101690.34;7395109;19;20018;-61
2023/09/28 08:10:47;;;;;;;10.75;5.40;;;;;;;19.81;71.66;101700.13;7395564;19;20039;-61
2023/09/28 08:13:16;;;;;;;8.40;4.78;;;;;;;19.87;70.98;101704.88;7393046;19;20022;-61
2023/09/28 08:15:44;;;;;;;11.20;5.15;;;;;;;19.90;71.02;101704.59;7393629;19;20022;-61
2023/09/28 08:18:13;;;;;;;14.02;4.85;;;;;;;19.96;70.09;101715.59;7394236;19;20027;-61
2023/09/28 08:20:41;;;;;;;11.60;5.15;;;;;;;19.98;70.04;101728.03;7395728;19;20025;-63
2023/09/28 08:23:18;;;;;;;9.43;5.10;;;;;;;19.95;69.53;101727.31;7394666;19;20022;-61
2023/09/28 08:25:46;;;;;;;12.02;5.22;;;;;;;19.98;69.60;101733.41;7396796;19;20019;-61
2023/09/28 08:28:14;;;;;;;10.77;4.70;;;;;;;19.99;69.61;101727.88;7395936;19;20055;-61
2023/09/28 08:30:42;;;;;;;12.05;4.57;;;;;;;20.01;69.03;101742.03;7398832;19;20019;-61
2023/09/28 08:33:10;;;;;;;9.80;4.50;;;;;;;20.05;69.61;101737.19;7394636;19;20018;-61
2023/09/28 08:35:37;;;;;;;8.60;4.40;;;;;;;20.04;69.77;101732.81;7397599;19;20018;-60
2023/09/28 08:38:05;;;;;;;10.88;4.40;;;;;;;20.08;69.44;101753.88;7395388;19;20014;-62
2023/09/28 08:40:33;;;;;;;9.60;4.85;;;;;;;20.12;68.85;101751.75;7395094;19;20018;-62
2023/09/28 08:43:04;;;;;;;13.23;4.68;;;;;;;20.17;68.90;101757.50;7394944;19;20086;-62
2023/09/28 08:45:32;;;;;;;8.93;4.30;;;;;;;20.16;68.94;101745.06;7395532;19;20023;-62
2023/09/28 08:48:01;;;;;;;10.88;4.45;;;;;;;20.18;68.75;101743.03;7395895;19;20384;-62
2023/09/28 08:50:35;;;;;;;8.63;4.15;;;;;;;20.26;69.03;101744.97;7394683;19;20046;-62
2023/09/28 08:53:06;;;;;;;8.88;3.97;;;;;;;20.27;68.69;101738.63;7390790;19;20588;-61
2023/09/28 08:55:36;;;;;;;9.43;3.60;;;;;;;20.28;68.55;101734.91;7394407;19;20114;-62
2023/09/28 08:58:05;;;;;;;9.52;3.63;;;;;;;20.33;68.00;101738.84;7391528;19;20042;-62
2023/09/28 09:00:36;;;;;;;9.95;3.60;;;;;;;20.36;67.11;101743.91;7393846;19;20022;-62
2023/09/28 09:03:06;;;;;;;12.70;4.00;;;;;;;20.37;66.89;101750.13;7393784;19;20035;-60
2023/09/28 09:05:38;;;;;;;11.75;3.55;;;;;;;20.39;66.09;101740.09;7394253;19;20097;-60
2023/09/28 09:08:08;;;;;;;11.63;3.83;;;;;;;20.39;66.42;101735.53;7392835;19;20022;-60
2023/09/28 09:10:37;;;;;;;12.50;3.80;;;;;;;20.43;65.98;101736.94;7393160;19;20019;-60
2023/09/28 09:13:07;;;;;;;11.80;3.50;;;;;;;20.46;65.54;101735.78;7392083;19;20014;-60
2023/09/28 09:15:36;;;;;;;14.35;3.75;;;;;;;20.50;65.81;101739.88;7392900;19;20532;-60
2023/09/28 09:18:04;;;;;;;11.60;3.65;;;;;;;20.53;65.89;101746.78;7392063;19;20094;-60
2023/09/28 09:20:31;;;;;;;11.63;4.03;;;;;;;20.55;65.74;101739.41;7393342;19;20098;-61
2023/09/28 09:23:12;;;;;;;13.43;4.05;;;;;;;20.65;65.22;101751.81;7393568;19;20018;-60
2023/09/28 09:25:44;;;;;;;14.10;3.80;;;;;;;20.62;65.62;101752.09;7392538;19;20015;-60
2023/09/28 09:28:12;;;;;;;13.25;3.80;;;;;;;20.58;65.37;101753.41;7390009;19;20019;-60
2023/09/28 09:30:40;;;;;;;11.57;3.72;;;;;;;20.58;65.47;101748.03;7392479;19;20014;-60
2023/09/28 09:33:11;;;;;;;13.65;4.00;;;;;;;20.61;65.27;101749.59;7389284;19;20021;-60
2023/09/28 09:35:38;;;;;;;15.77;4.40;;;;;;;20.64;65.38;101750.13;7392972;19;20030;-61
2023/09/28 09:38:06;;;;;;;13.52;4.00;;;;;;;20.68;65.26;101745.25;7392225;19;20026;-58
2023/09/28 09:40:35;;;;;;;14.02;4.07;;;;;;;20.73;65.07;101742.13;7392179;19;20014;-58
2023/09/28 09:43:06;;;;;;;15.15;4.40;;;;;;;20.76;65.37;101750.72;7391347;19;20014;-60
2023/09/28 09:45:40;;;;;;;12.13;3.80;;;;;;;20.78;65.16;101761.31;7391880;19;20033;-59
2023/09/28 09:48:12;;;;;;;13.80;3.85;;;;;;;20.77;65.58;101759.66;7390800;19;20042;-59
2023/09/28 09:50:40;;;;;;;11.82;3.90;;;;;;;20.84;64.38;101766.09;7392072;19;20018;-59
2023/09/28 09:53:09;;;;;;;12.00;3.55;;;;;;;20.80;64.67;101768.25;7391164;19;20039;-59
2023/09/28 09:55:40;;;;;;;12.50;3.90;;;;;;;20.76;64.46;101761.50;7392352;19;20023;-59
2023/09/28 09:58:14;;;;;;;13.10;3.88;;;;;;;20.72;64.95;101760.13;7391695;19;20039;-59
2023/09/28 10:00:44;;;;;;;12.05;3.75;;;;;;;20.73;64.86;101760.97;7392561;19;20011;-58
2023/09/28 10:03:13;;;;;;;14.07;3.33;;;;;;;20.74;64.48;101770.72;7390985;19;20047;-57
2023/09/28 10:05:41;;;;;;;13.45;4.38;;;;;;;20.79;65.00;101776.47;7392680;19;20030;-59
2023/09/28 10:08:10;;;;;;;14.98;4.18;;;;;;;20.80;64.66;101773.66;7389784;19;20018;-58
2023/09/28 10:10:37;;;;;;;13.48;3.75;;;;;;;20.79;65.09;101768.41;7392387;19;20022;-59
2023/09/28 10:13:05;;;;;;;15.00;4.05;;;;;;;20.70;65.07;101767.50;7392061;19;20519;-58
2023/09/28 10:15:33;;;;;;;13.05;3.95;;;;;;;20.65;64.78;101759.03;7394159;19;20078;-58
2023/09/28 10:18:03;;;;;;;12.45;3.95;;;;;;;20.64;65.60;101752.81;7396402;19;20014;-59
2023/09/28 10:20:31;;;;;;;13.02;3.70;;;;;;;20.64;65.40;101750.13;7397620;19;20089;-61
2023/09/28 10:23:11;;;;;;;14.38;4.10;;;;;;;20.71;65.24;101752.19;7399564;19;20039;-61
2023/09/28 10:26:03;;;;;;;18.92;4.28;;;;;;;20.76;64.86;101744.47;7398529;19;20039;-61
2023/09/28 10:28:33;;;;;;;11.93;3.33;;;;;;;20.74;65.21;101747.34;7397296;19;20047;-61
2023/09/28 10:31:07;;;;;;;13.77;3.90;;;;;;;20.80;64.98;101754.81;7398300;19;20025;-61
2023/09/28 10:33:35;;;;;;;14.85;3.75;;;;;;;20.73;65.17;101756.41;7396848;19;20029;-61
2023/09/28 10:36:13;;;;;;;13.80;3.60;;;;;;;20.87;64.39;101758.56;7400412;19;20055;-61
2023/09/28 10:38:41;;;;;;;17.27;4.32;;;;;;;20.87;64.88;101757.69;7396785;19;20051;-61
2023/09/28 10:41:08;;;;;;;14.93;3.80;;;;;;;20.99;64.50;101758.31;7396720;19;20352;-60
2023/09/28 10:43:42;;;;;;;15.50;3.58;;;;;;;21.06;63.67;101762.94;7398230;19;20014;-60
2023/09/28 10:46:10;;;;;;;16.20;3.92;;;;;;;21.07;63.91;101770.00;7396734;19;20032;-60
2023/09/28 10:48:43;;;;;;;14.02;3.90;;;;;;;21.12;63.51;101785.69;7396309;19;20021;-60
2023/09/28 10:51:18;;;;;;;15.55;4.28;;;;;;;21.11;64.02;101787.53;7396854;19;20023;-60
2023/09/28 10:53:46;;;;;;;13.48;4.25;;;;;;;21.11;63.99;101792.91;7395896;19;20038;-61
2023/09/28 10:56:13;;;;;;;11.07;3.20;;;;;;;21.21;63.62;101800.88;7398397;19;20022;-60
2023/09/28 10:58:41;;;;;;;12.82;3.65;;;;;;;21.24;63.69;101797.03;7395925;19;20035;-60
2023/09/28 11:01:10;;;;;;;12.70;3.42;;;;;;;21.16;64.12;101789.75;7397504;19;20092;-61
2023/09/28 11:03:39;;;;;;;13.50;3.75;;;;;;;21.14;64.38;101787.22;7396821;19;20019;-61
2023/09/28 11:06:12;;;;;;;10.38;3.80;;;;;;;21.07;64.40;101790.69;7397573;19;20011;-61
2023/09/28 11:08:42;;;;;;;14.23;3.72;;;;;;;21.13;63.90;101788.19;7395249;19;20051;-61
2023/09/28 11:11:10;;;;;;;10.20;4.05;;;;;;;21.11;63.72;101800.16;7397479;19;20035;-61
2023/09/28 11:13:38;;;;;;;10.35;3.60;;;;;;;21.16;63.23;101784.34;7395364;19;20014;-61
2023/09/28 11:16:05;;;;;;;12.73;3.40;;;;;;;21.24;63.23;101788.97;7397311;19;20038;-60
2023/09/28 11:18:33;;;;;;;12.15;3.58;;;;;;;21.28;63.11;101793.88;7395272;19;20018;-60
2023/09/28 11:21:03;;;;;;;12.20;4.25;;;;;;;21.42;63.10;101789.78;7396725;19;20528;-62
2023/09/28 11:23:30;;;;;;;13.55;3.60;;;;;;;21.47;62.96;101789.31;7397630;19;20346;-61
2023/09/28 11:25:58;;;;;;;14.82;3.67;;;;;;;21.47;62.22;101784.75;7395282;19;20349;-62
2023/09/28 11:28:26;;;;;;;13.15;3.50;;;;;;;21.45;62.70;101773.31;7393773;19;20047;-60
2023/09/28 11:31:03;;;;;;;11.80;3.55;;;;;;;21.57;62.30;101781.97;7396305;19;20118;-60
2023/09/28 11:33:32;;;;;;;13.27;4.18;;;;;;;21.55;61.78;101781.28;7391749;19;20112;-61
2023/09/28 11:36:00;;;;;;;13.30;3.75;;;;;;;21.61;62.29;101786.03;7397279;19;20015;-61